Collingwood, Canada
Current Conditions -  °F | °C
As of 1:07 PM on Wednesday 26 Nov 2014 (Local Time) from CYBN Reporting Station
Overcast Overcast  
Wind Chill: 28°   Ceiling: 2000
Heat Index: 34°   Visibility: 9mi
Dew Point: 25°   Wind: 7mph
Humidity: 70%   Direction: 130°SE
Pressure: 30.14"   Gusts: NA
Location:  44.5°N, 80.22°W
Report Text: CYBN 261807Z AUTO 13006KT 9SM OVC020 01/M04 A3014
Loading
Personal Weather Stations






























Interactive Weather Map New forecast layout! Learn more

10-Day Weather Forecast

Advertisements
Track Severe Weather on mobile